sensor_id;sensor_type;location;lat;lon;timestamp;P1;durP1;ratioP1;P2;durP2;ratioP2
49510;SDS011;35413;48.776;9.204;2023-02-15T00:00:06;4.35;;;2.53;;
49510;SDS011;35413;48.776;9.204;2023-02-15T00:02:35;3.50;;;2.30;;
49510;SDS011;35413;48.776;9.204;2023-02-15T00:05:01;3.90;;;2.70;;
49510;SDS011;35413;48.776;9.204;2023-02-15T00:07:28;3.45;;;2.50;;
49510;SDS011;35413;48.776;9.204;2023-02-15T00:09:54;4.10;;;2.85;;
49510;SDS011;35413;48.776;9.204;2023-02-15T00:12:20;3.88;;;2.20;;
49510;SDS011;35413;48.776;9.204;2023-02-15T00:14:47;3.92;;;2.47;;
49510;SDS011;35413;48.776;9.204;2023-02-15T00:17:13;3.25;;;2.38;;
49510;SDS011;35413;48.776;9.204;2023-02-15T00:19:39;4.80;;;3.10;;
49510;SDS011;35413;48.776;9.204;2023-02-15T00:22:05;3.22;;;2.42;;
49510;SDS011;35413;48.776;9.204;2023-02-15T00:24:31;2.67;;;2.10;;
49510;SDS011;35413;48.776;9.204;2023-02-15T00:26:57;3.40;;;2.25;;
49510;SDS011;35413;48.776;9.204;2023-02-15T00:29:23;4.90;;;2.58;;
49510;SDS011;35413;48.776;9.204;2023-02-15T00:31:50;3.70;;;2.45;;
49510;SDS011;35413;48.776;9.204;2023-02-15T00:36:43;3.22;;;2.58;;
49510;SDS011;35413;48.776;9.204;2023-02-15T00:39:09;3.13;;;2.30;;
49510;SDS011;35413;48.776;9.204;2023-02-15T00:41:35;2.63;;;1.95;;
49510;SDS011;35413;48.776;9.204;2023-02-15T00:44:02;3.88;;;2.50;;
49510;SDS011;35413;48.776;9.204;2023-02-15T00:46:28;3.03;;;2.45;;
49510;SDS011;35413;48.776;9.204;2023-02-15T00:48:54;3.20;;;2.53;;
49510;SDS011;35413;48.776;9.204;2023-02-15T00:51:20;2.38;;;2.05;;
49510;SDS011;35413;48.776;9.204;2023-02-15T00:53:46;4.03;;;2.80;;
49510;SDS011;35413;48.776;9.204;2023-02-15T00:56:12;3.28;;;2.20;;
49510;SDS011;35413;48.776;9.204;2023-02-15T00:58:38;3.83;;;2.63;;
49510;SDS011;35413;48.776;9.204;2023-02-15T01:01:05;3.03;;;2.00;;
49510;SDS011;35413;48.776;9.204;2023-02-15T01:03:31;2.50;;;2.08;;
49510;SDS011;35413;48.776;9.204;2023-02-15T01:05:57;3.70;;;2.65;;
49510;SDS011;35413;48.776;9.204;2023-02-15T01:08:23;3.85;;;2.40;;
49510;SDS011;35413;48.776;9.204;2023-02-15T01:10:49;2.00;;;1.80;;
49510;SDS011;35413;48.776;9.204;2023-02-15T01:13:15;3.58;;;2.10;;
49510;SDS011;35413;48.776;9.204;2023-02-15T01:15:42;3.20;;;2.40;;
49510;SDS011;35413;48.776;9.204;2023-02-15T01:18:08;3.67;;;2.40;;
49510;SDS011;35413;48.776;9.204;2023-02-15T01:20:36;2.97;;;2.00;;
49510;SDS011;35413;48.776;9.204;2023-02-15T01:23:04;3.53;;;2.28;;
49510;SDS011;35413;48.776;9.204;2023-02-15T01:25:30;3.22;;;2.35;;
49510;SDS011;35413;48.776;9.204;2023-02-15T01:27:56;3.33;;;2.05;;
49510;SDS011;35413;48.776;9.204;2023-02-15T01:30:22;3.28;;;2.47;;
49510;SDS011;35413;48.776;9.204;2023-02-15T01:32:48;3.65;;;2.20;;
49510;SDS011;35413;48.776;9.204;2023-02-15T01:35:14;3.00;;;2.22;;
49510;SDS011;35413;48.776;9.204;2023-02-15T01:37:40;3.05;;;2.03;;
49510;SDS011;35413;48.776;9.204;2023-02-15T01:40:07;3.63;;;2.90;;
49510;SDS011;35413;48.776;9.204;2023-02-15T01:42:33;3.30;;;2.35;;
49510;SDS011;35413;48.776;9.204;2023-02-15T01:45:02;2.67;;;2.30;;
49510;SDS011;35413;48.776;9.204;2023-02-15T01:52:51;3.10;;;2.20;;
49510;SDS011;35413;48.776;9.204;2023-02-15T01:55:18;3.00;;;2.53;;
49510;SDS011;35413;48.776;9.204;2023-02-15T01:57:45;2.20;;;1.80;;
49510;SDS011;35413;48.776;9.204;2023-02-15T02:00:12;2.30;;;2.10;;
49510;SDS011;35413;48.776;9.204;2023-02-15T02:02:39;2.72;;;2.10;;
49510;SDS011;35413;48.776;9.204;2023-02-15T02:05:06;3.00;;;2.38;;
49510;SDS011;35413;48.776;9.204;2023-02-15T02:07:33;2.65;;;1.98;;
49510;SDS011;35413;48.776;9.204;2023-02-15T02:09:59;3.60;;;2.33;;
49510;SDS011;35413;48.776;9.204;2023-02-15T02:12:26;3.25;;;2.05;;
49510;SDS011;35413;48.776;9.204;2023-02-15T02:14:52;3.17;;;2.30;;
49510;SDS011;35413;48.776;9.204;2023-02-15T02:17:22;2.20;;;2.00;;
49510;SDS011;35413;48.776;9.204;2023-02-15T02:35:26;2.95;;;2.20;;
49510;SDS011;35413;48.776;9.204;2023-02-15T02:38:38;2.83;;;2.10;;
49510;SDS011;35413;48.776;9.204;2023-02-15T02:43:22;3.05;;;2.30;;
49510;SDS011;35413;48.776;9.204;2023-02-15T02:45:58;3.25;;;2.05;;
49510;SDS011;35413;48.776;9.204;2023-02-15T02:48:25;3.42;;;2.08;;
49510;SDS011;35413;48.776;9.204;2023-02-15T02:50:53;3.63;;;2.00;;
49510;SDS011;35413;48.776;9.204;2023-02-15T02:53:19;3.42;;;2.45;;
49510;SDS011;35413;48.776;9.204;2023-02-15T03:00:39;3.28;;;1.98;;
49510;SDS011;35413;48.776;9.204;2023-02-15T03:03:06;3.10;;;2.35;;
49510;SDS011;35413;48.776;9.204;2023-02-15T03:05:36;2.85;;;2.28;;
49510;SDS011;35413;48.776;9.204;2023-02-15T03:08:03;3.05;;;2.58;;
49510;SDS011;35413;48.776;9.204;2023-02-15T03:10:31;4.30;;;2.22;;
49510;SDS011;35413;48.776;9.204;2023-02-15T03:12:57;3.10;;;2.28;;
49510;SDS011;35413;48.776;9.204;2023-02-15T03:15:29;2.95;;;2.10;;
49510;SDS011;35413;48.776;9.204;2023-02-15T03:18:16;3.28;;;2.40;;
49510;SDS011;35413;48.776;9.204;2023-02-15T03:20:42;3.00;;;2.30;;
49510;SDS011;35413;48.776;9.204;2023-02-15T03:23:10;3.70;;;2.40;;
49510;SDS011;35413;48.776;9.204;2023-02-15T03:25:42;3.67;;;2.40;;
49510;SDS011;35413;48.776;9.204;2023-02-15T03:28:11;3.35;;;1.90;;
49510;SDS011;35413;48.776;9.204;2023-02-15T03:30:39;2.95;;;2.00;;
49510;SDS011;35413;48.776;9.204;2023-02-15T03:33:07;2.97;;;2.38;;
49510;SDS011;35413;48.776;9.204;2023-02-15T03:35:53;2.35;;;2.00;;
49510;SDS011;35413;48.776;9.204;2023-02-15T03:38:24;2.63;;;2.42;;
49510;SDS011;35413;48.776;9.204;2023-02-15T03:40:51;3.08;;;2.22;;
49510;SDS011;35413;48.776;9.204;2023-02-15T03:46:15;2.70;;;1.92;;
49510;SDS011;35413;48.776;9.204;2023-02-15T03:48:45;3.33;;;2.40;;
49510;SDS011;35413;48.776;9.204;2023-02-15T03:51:14;3.90;;;2.35;;
49510;SDS011;35413;48.776;9.204;2023-02-15T03:56:30;4.60;;;2.28;;
49510;SDS011;35413;48.776;9.204;2023-02-15T03:58:56;3.38;;;2.40;;
49510;SDS011;35413;48.776;9.204;2023-02-15T04:04:35;4.00;;;2.30;;
49510;SDS011;35413;48.776;9.204;2023-02-15T04:07:02;3.33;;;2.42;;
49510;SDS011;35413;48.776;9.204;2023-02-15T04:09:29;3.13;;;2.33;;
49510;SDS011;35413;48.776;9.204;2023-02-15T04:12:13;2.55;;;2.20;;
49510;SDS011;35413;48.776;9.204;2023-02-15T04:14:39;3.90;;;2.67;;
49510;SDS011;35413;48.776;9.204;2023-02-15T04:17:24;3.28;;;2.08;;
49510;SDS011;35413;48.776;9.204;2023-02-15T04:19:50;4.13;;;2.47;;
49510;SDS011;35413;48.776;9.204;2023-02-15T04:22:34;3.05;;;1.98;;
49510;SDS011;35413;48.776;9.204;2023-02-15T04:25:19;3.30;;;2.38;;
49510;SDS011;35413;48.776;9.204;2023-02-15T04:27:46;3.67;;;2.30;;
49510;SDS011;35413;48.776;9.204;2023-02-15T04:30:13;3.05;;;2.33;;
49510;SDS011;35413;48.776;9.204;2023-02-15T04:32:39;3.28;;;2.40;;
49510;SDS011;35413;48.776;9.204;2023-02-15T04:35:06;3.55;;;2.53;;
49510;SDS011;35413;48.776;9.204;2023-02-15T04:37:32;3.53;;;2.30;;
49510;SDS011;35413;48.776;9.204;2023-02-15T04:39:58;4.03;;;2.60;;
49510;SDS011;35413;48.776;9.204;2023-02-15T04:42:24;3.47;;;2.20;;
49510;SDS011;35413;48.776;9.204;2023-02-15T04:44:51;3.13;;;2.30;;
49510;SDS011;35413;48.776;9.204;2023-02-15T04:47:17;2.83;;;2.30;;
49510;SDS011;35413;48.776;9.204;2023-02-15T04:49:43;4.35;;;2.95;;
49510;SDS011;35413;48.776;9.204;2023-02-15T04:52:09;3.95;;;2.65;;
49510;SDS011;35413;48.776;9.204;2023-02-15T04:54:35;3.35;;;2.47;;
49510;SDS011;35413;48.776;9.204;2023-02-15T04:57:01;4.68;;;2.58;;
49510;SDS011;35413;48.776;9.204;2023-02-15T04:59:27;3.30;;;2.33;;
49510;SDS011;35413;48.776;9.204;2023-02-15T05:01:53;3.85;;;2.78;;
49510;SDS011;35413;48.776;9.204;2023-02-15T05:04:19;3.28;;;2.30;;
49510;SDS011;35413;48.776;9.204;2023-02-15T05:06:45;3.42;;;2.30;;
49510;SDS011;35413;48.776;9.204;2023-02-15T05:09:11;3.40;;;2.55;;
49510;SDS011;35413;48.776;9.204;2023-02-15T05:11:37;3.00;;;2.63;;
49510;SDS011;35413;48.776;9.204;2023-02-15T05:14:03;4.18;;;2.63;;
49510;SDS011;35413;48.776;9.204;2023-02-15T05:16:30;3.50;;;2.63;;
49510;SDS011;35413;48.776;9.204;2023-02-15T05:18:56;3.75;;;2.80;;
49510;SDS011;35413;48.776;9.204;2023-02-15T05:21:22;4.63;;;3.00;;
49510;SDS011;35413;48.776;9.204;2023-02-15T05:23:48;3.78;;;2.17;;
49510;SDS011;35413;48.776;9.204;2023-02-15T05:26:16;2.65;;;2.28;;
49510;SDS011;35413;48.776;9.204;2023-02-15T05:29:01;4.28;;;2.55;;
49510;SDS011;35413;48.776;9.204;2023-02-15T05:31:27;4.20;;;2.50;;
49510;SDS011;35413;48.776;9.204;2023-02-15T05:33:53;3.30;;;2.28;;
49510;SDS011;35413;48.776;9.204;2023-02-15T05:36:19;4.22;;;3.22;;
49510;SDS011;35413;48.776;9.204;2023-02-15T05:38:45;3.67;;;2.72;;
49510;SDS011;35413;48.776;9.204;2023-02-15T05:41:11;4.72;;;3.03;;
49510;SDS011;35413;48.776;9.204;2023-02-15T05:43:37;3.45;;;2.30;;
49510;SDS011;35413;48.776;9.204;2023-02-15T05:46:04;3.40;;;2.28;;
49510;SDS011;35413;48.776;9.204;2023-02-15T05:48:30;4.00;;;2.35;;
49510;SDS011;35413;48.776;9.204;2023-02-15T05:51:03;6.45;;;2.70;;
49510;SDS011;35413;48.776;9.204;2023-02-15T05:53:30;3.63;;;2.47;;
49510;SDS011;35413;48.776;9.204;2023-02-15T05:55:57;3.53;;;2.47;;
49510;SDS011;35413;48.776;9.204;2023-02-15T05:58:31;3.53;;;2.70;;
49510;SDS011;35413;48.776;9.204;2023-02-15T06:00:57;2.58;;;2.20;;
49510;SDS011;35413;48.776;9.204;2023-02-15T06:03:23;4.65;;;2.45;;
49510;SDS011;35413;48.776;9.204;2023-02-15T06:05:50;3.20;;;2.38;;
49510;SDS011;35413;48.776;9.204;2023-02-15T06:08:17;3.10;;;2.50;;
49510;SDS011;35413;48.776;9.204;2023-02-15T06:10:44;4.18;;;2.33;;
49510;SDS011;35413;48.776;9.204;2023-02-15T06:13:10;3.88;;;2.80;;
49510;SDS011;35413;48.776;9.204;2023-02-15T06:15:36;3.47;;;2.40;;
49510;SDS011;35413;48.776;9.204;2023-02-15T06:18:02;3.13;;;2.30;;
49510;SDS011;35413;48.776;9.204;2023-02-15T06:20:28;3.75;;;2.65;;
49510;SDS011;35413;48.776;9.204;2023-02-15T06:22:54;3.95;;;2.80;;
49510;SDS011;35413;48.776;9.204;2023-02-15T06:25:20;5.13;;;2.70;;
49510;SDS011;35413;48.776;9.204;2023-02-15T06:27:46;4.90;;;2.60;;
49510;SDS011;35413;48.776;9.204;2023-02-15T06:30:12;3.95;;;2.83;;
49510;SDS011;35413;48.776;9.204;2023-02-15T06:32:38;6.25;;;2.80;;
49510;SDS011;35413;48.776;9.204;2023-02-15T06:35:05;10.65;;;6.47;;
49510;SDS011;35413;48.776;9.204;2023-02-15T06:37:31;7.28;;;5.38;;
49510;SDS011;35413;48.776;9.204;2023-02-15T06:39:57;6.20;;;3.85;;
49510;SDS011;35413;48.776;9.204;2023-02-15T06:42:23;6.13;;;4.07;;
49510;SDS011;35413;48.776;9.204;2023-02-15T06:44:49;4.53;;;3.33;;
49510;SDS011;35413;48.776;9.204;2023-02-15T06:47:15;6.03;;;3.90;;
49510;SDS011;35413;48.776;9.204;2023-02-15T06:49:41;11.10;;;4.60;;
49510;SDS011;35413;48.776;9.204;2023-02-15T06:52:07;14.75;;;4.15;;
49510;SDS011;35413;48.776;9.204;2023-02-15T06:54:33;7.65;;;3.63;;
49510;SDS011;35413;48.776;9.204;2023-02-15T06:56:59;8.43;;;3.72;;
49510;SDS011;35413;48.776;9.204;2023-02-15T06:59:25;8.40;;;4.65;;
49510;SDS011;35413;48.776;9.204;2023-02-15T07:01:51;8.90;;;4.22;;
49510;SDS011;35413;48.776;9.204;2023-02-15T07:04:17;7.13;;;3.60;;
49510;SDS011;35413;48.776;9.204;2023-02-15T07:06:43;6.05;;;3.22;;
49510;SDS011;35413;48.776;9.204;2023-02-15T07:09:09;5.53;;;3.22;;
49510;SDS011;35413;48.776;9.204;2023-02-15T07:11:35;9.20;;;4.10;;
49510;SDS011;35413;48.776;9.204;2023-02-15T07:14:19;7.35;;;3.67;;
49510;SDS011;35413;48.776;9.204;2023-02-15T07:16:45;11.50;;;3.75;;
49510;SDS011;35413;48.776;9.204;2023-02-15T07:19:11;7.85;;;3.28;;
49510;SDS011;35413;48.776;9.204;2023-02-15T07:21:37;9.10;;;3.67;;
49510;SDS011;35413;48.776;9.204;2023-02-15T07:24:03;9.95;;;3.80;;
49510;SDS011;35413;48.776;9.204;2023-02-15T07:26:31;5.25;;;3.67;;
49510;SDS011;35413;48.776;9.204;2023-02-15T07:28:57;5.35;;;3.28;;
49510;SDS011;35413;48.776;9.204;2023-02-15T07:31:23;8.70;;;3.60;;
49510;SDS011;35413;48.776;9.204;2023-02-15T07:33:49;5.97;;;3.17;;
49510;SDS011;35413;48.776;9.204;2023-02-15T07:36:15;8.20;;;3.42;;
49510;SDS011;35413;48.776;9.204;2023-02-15T07:38:41;5.63;;;3.78;;
49510;SDS011;35413;48.776;9.204;2023-02-15T07:41:08;6.65;;;3.65;;
49510;SDS011;35413;48.776;9.204;2023-02-15T07:43:36;7.22;;;3.50;;
49510;SDS011;35413;48.776;9.204;2023-02-15T07:46:03;4.88;;;3.30;;
49510;SDS011;35413;48.776;9.204;2023-02-15T07:48:31;5.43;;;3.38;;
49510;SDS011;35413;48.776;9.204;2023-02-15T07:51:00;5.40;;;2.95;;
49510;SDS011;35413;48.776;9.204;2023-02-15T07:53:26;4.78;;;3.55;;
49510;SDS011;35413;48.776;9.204;2023-02-15T07:55:53;10.35;;;3.95;;
49510;SDS011;35413;48.776;9.204;2023-02-15T07:58:20;5.68;;;3.75;;
49510;SDS011;35413;48.776;9.204;2023-02-15T08:00:45;8.18;;;3.30;;
49510;SDS011;35413;48.776;9.204;2023-02-15T08:03:26;5.57;;;2.85;;
49510;SDS011;35413;48.776;9.204;2023-02-15T08:05:58;4.57;;;3.20;;
49510;SDS011;35413;48.776;9.204;2023-02-15T08:08:25;4.85;;;3.10;;
49510;SDS011;35413;48.776;9.204;2023-02-15T08:11:06;6.60;;;3.72;;
49510;SDS011;35413;48.776;9.204;2023-02-15T08:14:04;4.95;;;3.35;;
49510;SDS011;35413;48.776;9.204;2023-02-15T08:19:21;5.43;;;3.25;;
49510;SDS011;35413;48.776;9.204;2023-02-15T08:21:49;4.43;;;3.22;;
49510;SDS011;35413;48.776;9.204;2023-02-15T08:24:16;5.30;;;3.45;;
49510;SDS011;35413;48.776;9.204;2023-02-15T08:26:42;7.80;;;3.63;;
49510;SDS011;35413;48.776;9.204;2023-02-15T08:29:11;6.53;;;3.70;;
49510;SDS011;35413;48.776;9.204;2023-02-15T08:31:37;6.00;;;3.42;;
49510;SDS011;35413;48.776;9.204;2023-02-15T08:34:06;4.32;;;3.00;;
49510;SDS011;35413;48.776;9.204;2023-02-15T08:36:32;4.88;;;3.15;;
49510;SDS011;35413;48.776;9.204;2023-02-15T08:38:58;6.13;;;3.35;;
49510;SDS011;35413;48.776;9.204;2023-02-15T08:41:29;4.82;;;3.30;;
49510;SDS011;35413;48.776;9.204;2023-02-15T08:43:56;5.82;;;3.63;;
49510;SDS011;35413;48.776;9.204;2023-02-15T08:46:23;5.10;;;2.90;;
49510;SDS011;35413;48.776;9.204;2023-02-15T08:48:49;4.18;;;3.10;;
49510;SDS011;35413;48.776;9.204;2023-02-15T08:51:20;4.03;;;3.10;;
49510;SDS011;35413;48.776;9.204;2023-02-15T08:53:47;6.57;;;3.58;;
49510;SDS011;35413;48.776;9.204;2023-02-15T08:56:14;5.95;;;4.22;;
49510;SDS011;35413;48.776;9.204;2023-02-15T08:58:40;4.07;;;3.15;;
49510;SDS011;35413;48.776;9.204;2023-02-15T09:01:09;5.57;;;3.83;;
49510;SDS011;35413;48.776;9.204;2023-02-15T09:03:35;5.65;;;3.22;;
49510;SDS011;35413;48.776;9.204;2023-02-15T09:06:01;6.15;;;3.60;;
49510;SDS011;35413;48.776;9.204;2023-02-15T09:08:28;4.82;;;3.53;;
49510;SDS011;35413;48.776;9.204;2023-02-15T09:10:54;5.65;;;3.50;;
49510;SDS011;35413;48.776;9.204;2023-02-15T09:13:20;4.72;;;3.30;;
49510;SDS011;35413;48.776;9.204;2023-02-15T09:15:46;4.53;;;3.42;;
49510;SDS011;35413;48.776;9.204;2023-02-15T09:18:12;4.57;;;3.22;;
49510;SDS011;35413;48.776;9.204;2023-02-15T09:20:42;5.03;;;3.50;;
49510;SDS011;35413;48.776;9.204;2023-02-15T09:23:08;5.32;;;3.60;;
49510;SDS011;35413;48.776;9.204;2023-02-15T09:25:34;4.38;;;3.22;;
49510;SDS011;35413;48.776;9.204;2023-02-15T09:28:00;5.88;;;3.60;;
49510;SDS011;35413;48.776;9.204;2023-02-15T09:30:26;5.57;;;3.35;;
49510;SDS011;35413;48.776;9.204;2023-02-15T09:32:52;4.05;;;3.00;;
49510;SDS011;35413;48.776;9.204;2023-02-15T09:35:18;5.47;;;4.15;;
49510;SDS011;35413;48.776;9.204;2023-02-15T09:37:44;4.65;;;3.60;;
49510;SDS011;35413;48.776;9.204;2023-02-15T09:40:11;3.50;;;2.90;;
49510;SDS011;35413;48.776;9.204;2023-02-15T09:43:00;3.90;;;3.17;;
49510;SDS011;35413;48.776;9.204;2023-02-15T09:48:25;5.35;;;3.03;;
49510;SDS011;35413;48.776;9.204;2023-02-15T10:03:39;5.05;;;3.67;;
49510;SDS011;35413;48.776;9.204;2023-02-15T10:06:20;6.22;;;3.80;;
49510;SDS011;35413;48.776;9.204;2023-02-15T10:14:19;4.70;;;3.38;;
49510;SDS011;35413;48.776;9.204;2023-02-15T10:17:08;3.80;;;2.70;;
49510;SDS011;35413;48.776;9.204;2023-02-15T10:27:54;5.80;;;3.67;;
49510;SDS011;35413;48.776;9.204;2023-02-15T10:30:23;6.00;;;3.30;;
49510;SDS011;35413;48.776;9.204;2023-02-15T10:35:33;6.50;;;3.88;;
49510;SDS011;35413;48.776;9.204;2023-02-15T10:43:12;4.75;;;3.00;;
49510;SDS011;35413;48.776;9.204;2023-02-15T10:45:45;5.63;;;3.80;;
49510;SDS011;35413;48.776;9.204;2023-02-15T11:06:22;5.72;;;3.58;;
49510;SDS011;35413;48.776;9.204;2023-02-15T11:08:56;7.22;;;4.43;;
49510;SDS011;35413;48.776;9.204;2023-02-15T11:11:25;6.05;;;3.72;;
49510;SDS011;35413;48.776;9.204;2023-02-15T11:13:54;6.60;;;3.60;;
49510;SDS011;35413;48.776;9.204;2023-02-15T11:16:26;5.68;;;3.67;;
49510;SDS011;35413;48.776;9.204;2023-02-15T11:19:08;7.60;;;3.75;;
49510;SDS011;35413;48.776;9.204;2023-02-15T11:21:40;5.88;;;3.25;;
49510;SDS011;35413;48.776;9.204;2023-02-15T11:26:34;5.88;;;3.70;;
49510;SDS011;35413;48.776;9.204;2023-02-15T11:29:21;3.55;;;2.90;;
49510;SDS011;35413;48.776;9.204;2023-02-15T11:31:53;6.80;;;3.92;;
49510;SDS011;35413;48.776;9.204;2023-02-15T11:34:21;7.18;;;4.70;;
49510;SDS011;35413;48.776;9.204;2023-02-15T11:36:50;5.30;;;3.80;;
49510;SDS011;35413;48.776;9.204;2023-02-15T11:39:18;5.07;;;3.60;;
49510;SDS011;35413;48.776;9.204;2023-02-15T11:42:09;6.93;;;3.92;;
49510;SDS011;35413;48.776;9.204;2023-02-15T11:44:35;6.68;;;3.80;;
49510;SDS011;35413;48.776;9.204;2023-02-15T11:47:03;5.25;;;3.70;;
49510;SDS011;35413;48.776;9.204;2023-02-15T11:49:32;5.97;;;3.75;;
49510;SDS011;35413;48.776;9.204;2023-02-15T11:52:00;5.40;;;3.85;;
49510;SDS011;35413;48.776;9.204;2023-02-15T11:54:28;4.43;;;3.78;;
49510;SDS011;35413;48.776;9.204;2023-02-15T11:56:55;7.75;;;3.42;;
49510;SDS011;35413;48.776;9.204;2023-02-15T11:59:27;4.75;;;3.33;;
49510;SDS011;35413;48.776;9.204;2023-02-15T12:01:55;5.57;;;4.10;;
49510;SDS011;35413;48.776;9.204;2023-02-15T12:04:25;5.25;;;3.60;;
49510;SDS011;35413;48.776;9.204;2023-02-15T12:06:53;4.95;;;3.50;;
49510;SDS011;35413;48.776;9.204;2023-02-15T12:12:28;5.53;;;3.83;;
49510;SDS011;35413;48.776;9.204;2023-02-15T12:14:55;6.63;;;3.80;;
49510;SDS011;35413;48.776;9.204;2023-02-15T12:17:23;6.55;;;4.13;;
49510;SDS011;35413;48.776;9.204;2023-02-15T12:19:49;5.57;;;3.65;;
49510;SDS011;35413;48.776;9.204;2023-02-15T12:22:24;7.00;;;3.95;;
49510;SDS011;35413;48.776;9.204;2023-02-15T12:24:52;6.68;;;3.72;;
49510;SDS011;35413;48.776;9.204;2023-02-15T12:27:42;7.25;;;3.60;;
49510;SDS011;35413;48.776;9.204;2023-02-15T12:30:51;6.38;;;3.60;;
49510;SDS011;35413;48.776;9.204;2023-02-15T12:33:14;4.85;;;3.35;;
49510;SDS011;35413;48.776;9.204;2023-02-15T12:35:38;6.40;;;3.53;;
49510;SDS011;35413;48.776;9.204;2023-02-15T12:38:09;5.68;;;3.80;;
49510;SDS011;35413;48.776;9.204;2023-02-15T12:40:56;5.43;;;3.75;;
49510;SDS011;35413;48.776;9.204;2023-02-15T12:43:33;6.38;;;3.50;;
49510;SDS011;35413;48.776;9.204;2023-02-15T12:46:20;7.13;;;3.83;;
49510;SDS011;35413;48.776;9.204;2023-02-15T12:48:46;6.15;;;4.15;;
49510;SDS011;35413;48.776;9.204;2023-02-15T12:51:15;8.40;;;3.90;;
49510;SDS011;35413;48.776;9.204;2023-02-15T12:53:41;6.97;;;3.63;;
49510;SDS011;35413;48.776;9.204;2023-02-15T12:56:08;10.25;;;4.03;;
49510;SDS011;35413;48.776;9.204;2023-02-15T12:58:35;5.53;;;3.72;;
49510;SDS011;35413;48.776;9.204;2023-02-15T13:01:15;8.23;;;4.72;;
49510;SDS011;35413;48.776;9.204;2023-02-15T13:04:00;7.30;;;3.33;;
49510;SDS011;35413;48.776;9.204;2023-02-15T13:06:27;5.40;;;3.30;;
49510;SDS011;35413;48.776;9.204;2023-02-15T13:08:54;6.95;;;4.05;;
49510;SDS011;35413;48.776;9.204;2023-02-15T13:11:22;5.63;;;3.40;;
49510;SDS011;35413;48.776;9.204;2023-02-15T13:16:32;8.93;;;4.00;;
49510;SDS011;35413;48.776;9.204;2023-02-15T13:19:03;8.10;;;3.95;;
49510;SDS011;35413;48.776;9.204;2023-02-15T13:21:31;8.35;;;3.60;;
49510;SDS011;35413;48.776;9.204;2023-02-15T13:24:00;5.50;;;3.47;;
49510;SDS011;35413;48.776;9.204;2023-02-15T13:26:29;6.63;;;4.30;;
49510;SDS011;35413;48.776;9.204;2023-02-15T13:28:56;8.57;;;3.60;;
49510;SDS011;35413;48.776;9.204;2023-02-15T13:31:23;5.55;;;4.15;;
49510;SDS011;35413;48.776;9.204;2023-02-15T13:33:51;5.78;;;3.83;;
49510;SDS011;35413;48.776;9.204;2023-02-15T13:36:23;6.90;;;4.15;;
49510;SDS011;35413;48.776;9.204;2023-02-15T13:41:28;6.45;;;4.15;;
49510;SDS011;35413;48.776;9.204;2023-02-15T13:44:03;7.97;;;3.65;;
49510;SDS011;35413;48.776;9.204;2023-02-15T13:49:09;6.47;;;3.72;;
49510;SDS011;35413;48.776;9.204;2023-02-15T13:51:41;7.10;;;3.47;;
49510;SDS011;35413;48.776;9.204;2023-02-15T14:02:15;4.75;;;3.42;;
49510;SDS011;35413;48.776;9.204;2023-02-15T14:04:50;5.75;;;3.78;;
49510;SDS011;35413;48.776;9.204;2023-02-15T14:14:43;6.63;;;3.28;;
49510;SDS011;35413;48.776;9.204;2023-02-15T14:19:40;5.40;;;3.40;;
49510;SDS011;35413;48.776;9.204;2023-02-15T14:22:29;7.18;;;4.20;;
49510;SDS011;35413;48.776;9.204;2023-02-15T14:24:59;6.45;;;4.88;;
49510;SDS011;35413;48.776;9.204;2023-02-15T14:30:15;10.88;;;6.30;;
49510;SDS011;35413;48.776;9.204;2023-02-15T14:32:57;10.45;;;5.65;;
49510;SDS011;35413;48.776;9.204;2023-02-15T14:35:26;11.10;;;6.63;;
49510;SDS011;35413;48.776;9.204;2023-02-15T14:48:30;11.95;;;6.13;;
49510;SDS011;35413;48.776;9.204;2023-02-15T14:50:58;8.90;;;5.78;;
49510;SDS011;35413;48.776;9.204;2023-02-15T14:58:34;8.75;;;5.22;;
49510;SDS011;35413;48.776;9.204;2023-02-15T15:01:07;9.30;;;5.75;;
49510;SDS011;35413;48.776;9.204;2023-02-15T15:03:33;8.45;;;5.35;;
49510;SDS011;35413;48.776;9.204;2023-02-15T15:06:01;6.80;;;4.57;;
49510;SDS011;35413;48.776;9.204;2023-02-15T15:08:36;8.40;;;5.13;;
49510;SDS011;35413;48.776;9.204;2023-02-15T15:14:05;6.95;;;5.13;;
49510;SDS011;35413;48.776;9.204;2023-02-15T15:19:03;8.70;;;4.45;;
49510;SDS011;35413;48.776;9.204;2023-02-15T15:29:41;4.80;;;3.90;;
49510;SDS011;35413;48.776;9.204;2023-02-15T15:32:07;4.60;;;3.42;;
49510;SDS011;35413;48.776;9.204;2023-02-15T15:37:38;7.18;;;4.13;;
49510;SDS011;35413;48.776;9.204;2023-02-15T15:40:24;5.20;;;3.90;;
49510;SDS011;35413;48.776;9.204;2023-02-15T15:50:31;7.00;;;3.50;;
49510;SDS011;35413;48.776;9.204;2023-02-15T15:52:59;6.70;;;4.00;;
49510;SDS011;35413;48.776;9.204;2023-02-15T15:55:26;4.95;;;4.03;;
49510;SDS011;35413;48.776;9.204;2023-02-15T15:57:55;5.35;;;4.07;;
49510;SDS011;35413;48.776;9.204;2023-02-15T16:00:28;6.18;;;4.10;;
49510;SDS011;35413;48.776;9.204;2023-02-15T16:02:56;5.13;;;3.20;;
49510;SDS011;35413;48.776;9.204;2023-02-15T16:05:22;6.50;;;4.20;;
49510;SDS011;35413;48.776;9.204;2023-02-15T16:07:48;6.53;;;3.53;;
49510;SDS011;35413;48.776;9.204;2023-02-15T16:10:25;8.25;;;4.00;;
49510;SDS011;35413;48.776;9.204;2023-02-15T16:12:51;6.18;;;4.32;;
49510;SDS011;35413;48.776;9.204;2023-02-15T16:15:22;5.47;;;4.18;;
49510;SDS011;35413;48.776;9.204;2023-02-15T16:17:50;5.47;;;4.07;;
49510;SDS011;35413;48.776;9.204;2023-02-15T16:20:21;7.20;;;3.47;;
49510;SDS011;35413;48.776;9.204;2023-02-15T16:22:49;5.28;;;3.65;;
49510;SDS011;35413;48.776;9.204;2023-02-15T16:28:05;4.55;;;3.55;;
49510;SDS011;35413;48.776;9.204;2023-02-15T16:30:33;5.50;;;3.80;;
49510;SDS011;35413;48.776;9.204;2023-02-15T16:33:12;5.45;;;3.92;;
49510;SDS011;35413;48.776;9.204;2023-02-15T16:35:40;5.85;;;3.67;;
49510;SDS011;35413;48.776;9.204;2023-02-15T16:38:10;6.45;;;3.78;;
49510;SDS011;35413;48.776;9.204;2023-02-15T16:40:50;5.63;;;3.78;;
49510;SDS011;35413;48.776;9.204;2023-02-15T16:43:21;6.28;;;3.80;;
49510;SDS011;35413;48.776;9.204;2023-02-15T16:45:49;5.72;;;4.35;;
49510;SDS011;35413;48.776;9.204;2023-02-15T16:48:20;5.68;;;3.83;;
49510;SDS011;35413;48.776;9.204;2023-02-15T16:50:51;8.55;;;3.40;;
49510;SDS011;35413;48.776;9.204;2023-02-15T16:53:21;5.20;;;3.55;;
49510;SDS011;35413;48.776;9.204;2023-02-15T16:55:53;7.97;;;4.57;;
49510;SDS011;35413;48.776;9.204;2023-02-15T16:58:23;6.93;;;4.43;;
49510;SDS011;35413;48.776;9.204;2023-02-15T17:00:51;5.43;;;3.40;;
49510;SDS011;35413;48.776;9.204;2023-02-15T17:03:21;7.03;;;3.67;;
49510;SDS011;35413;48.776;9.204;2023-02-15T17:05:52;7.13;;;3.83;;
49510;SDS011;35413;48.776;9.204;2023-02-15T17:13:29;6.22;;;4.55;;
49510;SDS011;35413;48.776;9.204;2023-02-15T17:18:26;7.20;;;4.63;;
49510;SDS011;35413;48.776;9.204;2023-02-15T17:20:57;6.03;;;3.63;;
49510;SDS011;35413;48.776;9.204;2023-02-15T17:23:32;5.97;;;3.53;;
49510;SDS011;35413;48.776;9.204;2023-02-15T17:26:00;7.35;;;3.67;;
49510;SDS011;35413;48.776;9.204;2023-02-15T17:28:28;4.18;;;3.38;;
49510;SDS011;35413;48.776;9.204;2023-02-15T17:30:55;8.65;;;3.53;;
49510;SDS011;35413;48.776;9.204;2023-02-15T17:33:23;6.45;;;3.58;;
49510;SDS011;35413;48.776;9.204;2023-02-15T17:36:13;5.63;;;3.83;;
49510;SDS011;35413;48.776;9.204;2023-02-15T17:38:59;6.30;;;3.95;;
49510;SDS011;35413;48.776;9.204;2023-02-15T17:41:31;4.50;;;3.40;;
49510;SDS011;35413;48.776;9.204;2023-02-15T17:43:59;6.50;;;3.90;;
49510;SDS011;35413;48.776;9.204;2023-02-15T17:46:25;6.78;;;4.70;;
49510;SDS011;35413;48.776;9.204;2023-02-15T17:48:53;5.57;;;3.38;;
49510;SDS011;35413;48.776;9.204;2023-02-15T17:51:21;6.00;;;3.75;;
49510;SDS011;35413;48.776;9.204;2023-02-15T17:53:47;6.10;;;3.33;;
49510;SDS011;35413;48.776;9.204;2023-02-15T17:56:33;5.68;;;3.92;;
49510;SDS011;35413;48.776;9.204;2023-02-15T17:58:59;4.80;;;3.38;;
49510;SDS011;35413;48.776;9.204;2023-02-15T18:01:25;5.53;;;3.45;;